Time;durP1;ratioP1;P1;durP2;ratioP2;P2;SDS_P1;SDS_P2;PMS_P1;PMS_P2;Temp;Humidity;BMP_temperature;BMP_pressure;BME280_temperature;BME280_humidity;BME280_pressure;Samples;Min_cycle;Max_cycle;Signal;HPM_P1;HPM_P2
2023/10/05 00:03:54;;;;;;;8.32;3.15;;;;;;;;;;6249339;28;20048;-86
2023/10/05 00:06:59;;;;;;;7.65;3.65;;;;;;;;;;6315233;28;20040;-84
2023/10/05 00:10:00;;;;;;;9.57;3.53;;;;;;;;;;6293044;28;20398;-83
2023/10/05 00:13:05;;;;;;;9.10;3.00;;;;;;;;;;6304430;28;20056;-86
2023/10/05 00:16:07;;;;;;;9.05;4.38;;;;;;;;;;6303547;28;20166;-84
2023/10/05 00:19:11;;;;;;;7.40;3.67;;;;;;;;;;6285784;28;20051;-86
2023/10/05 00:22:13;;;;;;;8.68;4.15;;;;;;;;;;6295332;28;20473;-85
2023/10/05 00:25:17;;;;;;;10.95;3.78;;;;;;;;;;6294749;28;20059;-85
2023/10/05 00:28:23;;;;;;;10.70;3.47;;;;;;;;;;6301310;28;20128;-86
2023/10/05 00:31:25;;;;;;;12.27;3.78;;;;;;;;;;6284284;28;20040;-86
2023/10/05 00:34:28;;;;;;;7.93;3.70;;;;;;;;;;6284537;28;20048;-86
2023/10/05 00:37:30;;;;;;;9.07;4.07;;;;;;;;;;6291675;28;20055;-87
2023/10/05 00:40:42;;;;;;;9.70;4.22;;;;;;;;;;6279858;28;20036;-85
2023/10/05 00:43:46;;;;;;;9.23;3.65;;;;;;;;;;6302524;28;20102;-84
2023/10/05 00:46:49;;;;;;;7.32;3.30;;;;;;;;;;6294949;28;20048;-85
2023/10/05 00:49:57;;;;;;;7.95;3.80;;;;;;;;;;6286028;28;20040;-86
2023/10/05 00:53:03;;;;;;;9.45;3.90;;;;;;;;;;6281589;28;20060;-86
2023/10/05 00:56:11;;;;;;;9.18;3.85;;;;;;;;;;6284804;28;20111;-84
2023/10/05 00:59:20;;;;;;;10.57;3.95;;;;;;;;;;6287590;28;20576;-84
2023/10/05 01:02:23;;;;;;;9.90;4.00;;;;;;;;;;6276603;28;20361;-84
2023/10/05 01:05:34;;;;;;;7.57;3.22;;;;;;;;;;6290728;28;20040;-84
2023/10/05 01:08:48;;;;;;;8.35;3.15;;;;;;;;;;6295636;28;20045;-84
2023/10/05 01:11:54;;;;;;;9.35;3.72;;;;;;;;;;6269742;28;20047;-84
2023/10/05 01:14:59;;;;;;;11.20;3.58;;;;;;;;;;6284812;28;20044;-87
2023/10/05 01:18:01;;;;;;;7.43;3.42;;;;;;;;;;6279880;28;20071;-83
2023/10/05 01:21:03;;;;;;;8.10;3.05;;;;;;;;;;6299502;28;20509;-84
2023/10/05 01:24:05;;;;;;;7.55;3.45;;;;;;;;;;6289618;28;20059;-86
2023/10/05 01:27:08;;;;;;;7.97;3.10;;;;;;;;;;6310448;28;20039;-86
2023/10/05 01:30:15;;;;;;;9.35;3.63;;;;;;;;;;6296879;28;20036;-83
2023/10/05 01:33:17;;;;;;;10.25;3.40;;;;;;;;;;6312880;28;20059;-85
2023/10/05 01:36:22;;;;;;;6.95;3.15;;;;;;;;;;6295820;28;20108;-86
2023/10/05 01:39:25;;;;;;;7.55;3.63;;;;;;;;;;6276616;28;20261;-84
2023/10/05 01:42:30;;;;;;;10.68;3.80;;;;;;;;;;6299526;28;20403;-86
2023/10/05 01:45:33;;;;;;;7.78;3.10;;;;;;;;;;6287034;28;20055;-84
2023/10/05 01:48:36;;;;;;;8.98;3.75;;;;;;;;;;6283014;28;20074;-86
2023/10/05 01:51:38;;;;;;;10.23;3.65;;;;;;;;;;6287827;28;20048;-83
2023/10/05 01:54:43;;;;;;;9.73;3.40;;;;;;;;;;6290042;28;20409;-85
2023/10/05 01:57:45;;;;;;;10.88;4.20;;;;;;;;;;6273135;28;20044;-84
2023/10/05 02:00:47;;;;;;;8.68;3.20;;;;;;;;;;6284088;28;20040;-85
2023/10/05 02:03:54;;;;;;;7.65;3.35;;;;;;;;;;6273576;28;20040;-83
2023/10/05 02:06:56;;;;;;;9.88;3.03;;;;;;;;;;6296056;28;20175;-84
2023/10/05 02:09:58;;;;;;;6.45;4.00;;;;;;;;;;6313734;28;20134;-85
2023/10/05 02:13:01;;;;;;;7.38;3.38;;;;;;;;;;6296384;28;20055;-85
2023/10/05 02:16:10;;;;;;;10.35;4.03;;;;;;;;;;6292007;28;20047;-85
2023/10/05 02:19:14;;;;;;;8.45;3.53;;;;;;;;;;6292366;28;20048;-86
2023/10/05 02:22:22;;;;;;;8.00;3.58;;;;;;;;;;6280915;28;20549;-84
2023/10/05 02:25:34;;;;;;;10.63;3.35;;;;;;;;;;6284151;28;20037;-85
2023/10/05 02:28:41;;;;;;;6.72;3.05;;;;;;;;;;6312147;28;20449;-85
2023/10/05 02:38:49;;;;;;;8.75;3.40;;;;;;;;;;6253949;28;21193;-84
2023/10/05 02:41:51;;;;;;;7.75;3.47;;;;;;;;;;6298503;28;20039;-84
2023/10/05 02:44:53;;;;;;;10.23;3.88;;;;;;;;;;6313200;28;20051;-83
2023/10/05 02:47:57;;;;;;;7.67;3.23;;;;;;;;;;6298701;28;20043;-83
2023/10/05 02:50:59;;;;;;;7.38;3.47;;;;;;;;;;6302913;28;20434;-83
2023/10/05 02:54:07;;;;;;;8.20;3.47;;;;;;;;;;6289581;28;20050;-84
2023/10/05 02:57:14;;;;;;;7.65;3.17;;;;;;;;;;6294256;28;20068;-83
2023/10/05 03:00:20;;;;;;;7.85;3.50;;;;;;;;;;6287477;28;20960;-84
2023/10/05 03:03:22;;;;;;;6.57;3.20;;;;;;;;;;6271803;28;20051;-84
2023/10/05 03:06:23;;;;;;;8.70;3.38;;;;;;;;;;6291276;28;20403;-83
2023/10/05 03:09:28;;;;;;;6.05;3.30;;;;;;;;;;6292759;28;20120;-84
2023/10/05 03:12:32;;;;;;;7.13;2.97;;;;;;;;;;6303543;28;20522;-83
2023/10/05 03:15:38;;;;;;;8.05;2.90;;;;;;;;;;6286185;28;20039;-85
2023/10/05 03:18:43;;;;;;;12.13;3.75;;;;;;;;;;6276394;28;20509;-83
2023/10/05 03:21:53;;;;;;;8.25;3.45;;;;;;;;;;6281248;28;20044;-84
2023/10/05 03:24:57;;;;;;;14.57;4.00;;;;;;;;;;6288440;28;20055;-85
2023/10/05 03:28:01;;;;;;;13.23;3.35;;;;;;;;;;6280711;28;20551;-85
2023/10/05 03:31:37;;;;;;;11.70;3.00;;;;;;;;;;6265627;28;20044;-84
2023/10/05 03:35:22;;;;;;;11.60;3.13;;;;;;;;;;6275893;28;20040;-84
2023/10/05 03:38:09;;;;;;;9.50;3.40;;;;;;;;;;6278704;28;20047;-84
2023/10/05 03:41:15;;;;;;;10.45;3.67;;;;;;;;;;6288889;28;20040;-83
2023/10/05 03:44:19;;;;;;;9.57;3.47;;;;;;;;;;6285208;28;20048;-83
2023/10/05 03:47:25;;;;;;;9.57;3.47;;;;;;;;;;6261210;28;20040;-86
2023/10/05 03:50:29;;;;;;;8.70;3.67;;;;;;;;;;6274672;28;20056;-83
2023/10/05 03:53:31;;;;;;;11.38;3.65;;;;;;;;;;6287048;28;20103;-83
2023/10/05 03:56:36;;;;;;;8.25;3.25;;;;;;;;;;6294393;28;20072;-83
2023/10/05 03:59:38;;;;;;;8.90;3.03;;;;;;;;;;6293222;28;20048;-84
2023/10/05 04:02:40;;;;;;;8.18;2.80;;;;;;;;;;6286993;28;20112;-84
2023/10/05 04:05:43;;;;;;;14.75;3.67;;;;;;;;;;6271593;28;20048;-84
2023/10/05 04:08:49;;;;;;;12.13;3.28;;;;;;;;;;6289512;28;20395;-84
2023/10/05 04:11:51;;;;;;;9.77;3.33;;;;;;;;;;6300143;28;20496;-86
2023/10/05 04:14:53;;;;;;;7.43;3.08;;;;;;;;;;6290544;28;20534;-85
2023/10/05 04:17:55;;;;;;;6.85;2.85;;;;;;;;;;6280311;28;20421;-84
2023/10/05 04:20:57;;;;;;;9.02;3.35;;;;;;;;;;6287941;28;20529;-85
2023/10/05 04:23:59;;;;;;;7.75;3.03;;;;;;;;;;6279230;28;20090;-83
2023/10/05 04:27:01;;;;;;;6.88;2.80;;;;;;;;;;6287193;28;20040;-84
2023/10/05 04:30:04;;;;;;;9.18;3.45;;;;;;;;;;6299516;28;20573;-85
2023/10/05 04:33:07;;;;;;;9.45;3.05;;;;;;;;;;6292561;28;20048;-84
2023/10/05 04:36:09;;;;;;;15.02;3.30;;;;;;;;;;6283305;28;20036;-84
2023/10/05 04:39:12;;;;;;;11.10;3.20;;;;;;;;;;6283043;28;20040;-83
2023/10/05 04:42:15;;;;;;;;;;;;;;;;;;6285837;28;20461;-86
2023/10/05 04:45:20;;;;;;;9.00;2.97;;;;;;;;;;6279319;28;19919;-84
2023/10/05 04:48:23;;;;;;;6.63;2.85;;;;;;;;;;6285441;28;20461;-84
2023/10/05 04:51:28;;;;;;;6.32;2.30;;;;;;;;;;6270828;28;20052;-84
2023/10/05 04:54:34;;;;;;;10.68;2.75;;;;;;;;;;6286951;28;20048;-85
2023/10/05 04:57:39;;;;;;;10.85;2.80;;;;;;;;;;6299890;28;20067;-84
2023/10/05 05:03:55;;;;;;;9.00;2.55;;;;;;;;;;6296357;28;20058;-86
2023/10/05 05:06:59;;;;;;;10.07;3.10;;;;;;;;;;6285520;28;20055;-84
2023/10/05 05:10:03;;;;;;;9.00;2.70;;;;;;;;;;6262760;28;20489;-85
2023/10/05 05:13:05;;;;;;;11.25;2.85;;;;;;;;;;6279636;28;20046;-86
2023/10/05 05:16:08;;;;;;;5.18;2.50;;;;;;;;;;6296799;28;20113;-85
2023/10/05 05:19:10;;;;;;;9.00;2.50;;;;;;;;;;6284923;28;20045;-84
2023/10/05 05:22:13;;;;;;;6.78;2.47;;;;;;;;;;6284162;28;20040;-85
2023/10/05 05:25:19;;;;;;;9.93;2.97;;;;;;;;;;6287100;28;20052;-85
2023/10/05 05:28:22;;;;;;;7.65;2.70;;;;;;;;;;6283756;28;20043;-84
2023/10/05 05:31:24;;;;;;;7.97;2.53;;;;;;;;;;6301957;28;20394;-83
2023/10/05 05:34:26;;;;;;;5.47;2.73;;;;;;;;;;6277865;28;20068;-85
2023/10/05 05:37:28;;;;;;;10.13;2.63;;;;;;;;;;6277946;28;20042;-84
2023/10/05 05:40:34;;;;;;;9.93;3.15;;;;;;;;;;6250797;28;20072;-84
2023/10/05 05:43:39;;;;;;;7.93;2.70;;;;;;;;;;6269703;28;20048;-84
2023/10/05 05:46:43;;;;;;;6.97;3.13;;;;;;;;;;6293522;28;20044;-84
2023/10/05 05:49:46;;;;;;;12.70;3.03;;;;;;;;;;6269601;28;20515;-85
2023/10/05 05:52:48;;;;;;;8.45;2.80;;;;;;;;;;6280072;28;20036;-85
2023/10/05 05:55:53;;;;;;;8.00;2.70;;;;;;;;;;6288260;28;20108;-85
2023/10/05 05:58:57;;;;;;;10.77;3.10;;;;;;;;;;6286889;28;20047;-82
2023/10/05 06:02:00;;;;;;;7.40;2.75;;;;;;;;;;6274321;28;20044;-83
2023/10/05 06:05:05;;;;;;;;;;;;;;;;;;6275763;28;20043;-83
2023/10/05 06:08:11;;;;;;;7.40;2.47;;;;;;;;;;6266215;28;19927;-82
2023/10/05 06:11:14;;;;;;;10.35;3.15;;;;;;;;;;6273133;28;20036;-82
2023/10/05 06:14:17;;;;;;;10.98;3.30;;;;;;;;;;6276915;28;20369;-85
2023/10/05 06:17:19;;;;;;;6.15;2.40;;;;;;;;;;6276838;28;20051;-83
2023/10/05 06:20:22;;;;;;;7.30;2.50;;;;;;;;;;6291782;28;20040;-84
2023/10/05 06:23:24;;;;;;;7.27;2.90;;;;;;;;;;6303308;28;20051;-82
2023/10/05 06:26:26;;;;;;;8.35;3.15;;;;;;;;;;6287061;28;20040;-83
2023/10/05 06:29:27;;;;;;;6.57;2.70;;;;;;;;;;6297662;28;20174;-83
2023/10/05 06:32:29;;;;;;;8.75;2.75;;;;;;;;;;6273531;28;20526;-84
2023/10/05 06:35:32;;;;;;;9.10;2.67;;;;;;;;;;6297243;28;20498;-84
2023/10/05 06:38:38;;;;;;;9.00;2.97;;;;;;;;;;6305191;28;20065;-83
2023/10/05 06:42:07;;;;;;;;;;;;;;;;;;;;;
2023/10/05 06:45:24;;;;;;;10.75;3.00;;;;;;;;;;6220421;28;20051;-84
2023/10/05 06:48:51;;;;;;;10.00;3.00;;;;;;;;;;6205661;28;20050;-86
2023/10/05 06:51:57;;;;;;;12.23;3.05;;;;;;;;;;6221855;23;21043;-83
2023/10/05 06:55:00;;;;;;;;;;;;;;;;;;6199802;28;20045;-85
2023/10/05 06:58:13;;;;;;;7.32;2.50;;;;;;;;;;6192487;28;19984;-85
2023/10/05 07:01:20;;;;;;;15.77;3.15;;;;;;;;;;6177048;28;20049;-84
2023/10/05 07:04:25;;;;;;;7.95;2.90;;;;;;;;;;6194360;28;20057;-83
2023/10/05 07:07:28;;;;;;;10.02;3.42;;;;;;;;;;6229582;28;20050;-81
2023/10/05 07:10:31;;;;;;;9.70;2.90;;;;;;;;;;6229591;28;20053;-81
2023/10/05 07:13:34;;;;;;;9.20;2.85;;;;;;;;;;6204875;28;20052;-80
2023/10/05 07:16:39;;;;;;;7.38;2.70;;;;;;;;;;6226489;28;20119;-84
2023/10/05 07:19:42;;;;;;;9.23;3.30;;;;;;;;;;6224845;28;20097;-83
2023/10/05 07:22:46;;;;;;;11.13;3.30;;;;;;;;;;6225363;28;20053;-82
2023/10/05 07:25:49;;;;;;;9.32;3.30;;;;;;;;;;6217596;28;20138;-82
2023/10/05 07:28:52;;;;;;;10.15;3.20;;;;;;;;;;6236909;28;20389;-82
2023/10/05 07:31:55;;;;;;;9.38;2.70;;;;;;;;;;6217460;28;20060;-81
2023/10/05 07:34:57;;;;;;;9.25;2.97;;;;;;;;;;6223115;28;20046;-80
2023/10/05 07:38:03;;;;;;;9.95;2.70;;;;;;;;;;6238849;28;20053;-79
2023/10/05 07:41:06;;;;;;;8.10;2.38;;;;;;;;;;6234878;28;20129;-80
2023/10/05 07:44:08;;;;;;;7.70;3.03;;;;;;;;;;6239405;28;20046;-82
2023/10/05 07:47:14;;;;;;;7.57;2.57;;;;;;;;;;6219997;28;20042;-83
2023/10/05 07:50:17;;;;;;;9.60;3.03;;;;;;;;;;6209080;28;20054;-80
2023/10/05 07:53:19;;;;;;;5.47;2.33;;;;;;;;;;6211056;28;20065;-79
2023/10/05 07:56:21;;;;;;;6.70;2.47;;;;;;;;;;6222728;28;20330;-81
2023/10/05 07:59:24;;;;;;;6.60;2.65;;;;;;;;;;6215464;28;20133;-81
2023/10/05 08:02:26;;;;;;;7.67;2.40;;;;;;;;;;6224387;28;20121;-82
2023/10/05 08:05:29;;;;;;;;;;;;;;;;;;6213676;28;20704;-82
2023/10/05 08:08:34;;;;;;;5.55;2.33;;;;;;;;;;6246443;28;19921;-80
2023/10/05 08:11:36;;;;;;;6.70;2.60;;;;;;;;;;6205944;28;20054;-79
2023/10/05 08:14:38;;;;;;;10.23;2.65;;;;;;;;;;6210664;28;20046;-77
2023/10/05 08:17:41;;;;;;;6.43;2.55;;;;;;;;;;6214434;28;20076;-78
2023/10/05 08:20:43;;;;;;;8.25;2.40;;;;;;;;;;6217292;28;20053;-79
2023/10/05 08:23:45;;;;;;;7.95;2.22;;;;;;;;;;6213589;28;20076;-80
2023/10/05 08:26:49;;;;;;;11.10;2.75;;;;;;;;;;6213076;28;20045;-77
2023/10/05 08:29:51;;;;;;;9.95;2.35;;;;;;;;;;6212843;28;20052;-78
2023/10/05 08:32:56;;;;;;;7.95;2.95;;;;;;;;;;6207771;28;20110;-83
2023/10/05 08:36:06;;;;;;;5.93;2.33;;;;;;;;;;6216056;28;20848;-80
2023/10/05 08:39:08;;;;;;;6.88;2.70;;;;;;;;;;6213896;28;20054;-83
2023/10/05 08:42:11;;;;;;;5.72;2.28;;;;;;;;;;6201356;28;20054;-82
2023/10/05 08:45:14;;;;;;;5.43;2.28;;;;;;;;;;6216057;28;20045;-82
2023/10/05 08:51:44;;;;;;;9.30;2.83;;;;;;;;;;6203919;28;20600;-81
2023/10/05 08:55:13;;;;;;;6.38;2.50;;;;;;;;;;6195670;28;20527;-80
2023/10/05 08:58:18;;;;;;;5.70;2.60;;;;;;;;;;6195844;28;20042;-81
2023/10/05 09:01:33;;;;;;;12.20;2.80;;;;;;;;;;6192062;28;20069;-83
2023/10/05 09:04:45;;;;;;;7.20;2.47;;;;;;;;;;6222657;28;20060;-83
2023/10/05 09:07:56;;;;;;;10.75;2.80;;;;;;;;;;6241253;28;20060;-81
2023/10/05 09:10:59;;;;;;;5.63;2.60;;;;;;;;;;6208760;28;20041;-80
2023/10/05 09:14:23;;;;;;;9.20;2.90;;;;;;;;;;6202170;28;20483;-84
2023/10/05 09:17:37;;;;;;;5.25;2.60;;;;;;;;;;6221651;28;20061;-81
2023/10/05 09:20:42;;;;;;;8.95;3.15;;;;;;;;;;6239187;28;20096;-83
2023/10/05 09:23:44;;;;;;;6.75;3.10;;;;;;;;;;6230813;28;20049;-80
2023/10/05 09:27:09;;;;;;;8.95;2.72;;;;;;;;;;6239607;28;20029;-84
2023/10/05 09:30:12;;;;;;;5.78;2.50;;;;;;;;;;6224600;28;20050;-82
2023/10/05 09:33:18;;;;;;;8.30;2.47;;;;;;;;;;6219600;28;20132;-82
2023/10/05 09:36:24;;;;;;;9.07;1.85;;;;;;;;;;6221387;28;20091;-83
2023/10/05 09:39:27;;;;;;;5.85;1.70;;;;;;;;;;6221604;28;20050;-84
2023/10/05 09:42:33;;;;;;;2.65;1.27;;;;;;;;;;6217767;28;20049;-84
2023/10/05 09:45:39;;;;;;;7.45;1.58;;;;;;;;;;6238581;28;20080;-82
2023/10/05 09:48:45;;;;;;;4.22;1.50;;;;;;;;;;6220327;28;20467;-84
2023/10/05 09:51:48;;;;;;;6.65;1.90;;;;;;;;;;6221269;28;20049;-82
2023/10/05 09:54:51;;;;;;;16.33;3.53;;;;;;;;;;6228772;28;20149;-79
2023/10/05 09:57:56;;;;;;;7.90;2.53;;;;;;;;;;6222891;28;20405;-81
2023/10/05 10:01:10;;;;;;;7.90;2.05;;;;;;;;;;6221512;28;20053;-80
2023/10/05 10:04:28;;;;;;;16.70;4.30;;;;;;;;;;6207238;28;20048;-81
2023/10/05 10:07:32;;;;;;;5.47;1.40;;;;;;;;;;6237018;28;20041;-80
2023/10/05 10:10:40;;;;;;;4.97;1.45;;;;;;;;;;6224644;28;20056;-83
2023/10/05 10:14:01;;;;;;;6.70;1.67;;;;;;;;;;6229509;28;20046;-83
2023/10/05 10:17:08;;;;;;;3.60;1.58;;;;;;;;;;6211456;28;20415;-84
2023/10/05 10:20:34;;;;;;;3.88;2.10;;;;;;;;;;6217875;28;20057;-82
2023/10/05 10:23:39;;;;;;;6.60;2.00;;;;;;;;;;6222493;28;20143;-86
2023/10/05 10:26:45;;;;;;;3.35;1.40;;;;;;;;;;6215911;28;20042;-82
2023/10/05 10:29:51;;;;;;;5.40;1.80;;;;;;;;;;6219629;28;20042;-84
2023/10/05 10:33:30;;;;;;;7.25;2.03;;;;;;;;;;6213672;28;20046;-84
2023/10/05 10:36:46;;;;;;;3.55;1.60;;;;;;;;;;6212642;28;20185;-82
2023/10/05 10:39:49;;;;;;;5.30;1.75;;;;;;;;;;6228462;28;20567;-83
2023/10/05 10:46:13;;;;;;;4.38;1.63;;;;;;;;;;6246805;28;20042;-83
2023/10/05 10:49:19;;;;;;;4.88;1.50;;;;;;;;;;6233917;28;20050;-84
2023/10/05 10:52:21;;;;;;;7.15;2.08;;;;;;;;;;6217903;28;20061;-83
2023/10/05 10:55:39;;;;;;;3.00;1.53;;;;;;;;;;6233597;28;20123;-83
2023/10/05 10:58:44;;;;;;;3.85;1.60;;;;;;;;;;6214991;28;20046;-84
2023/10/05 11:01:53;;;;;;;9.38;1.70;;;;;;;;;;6213706;28;20073;-84
2023/10/05 11:05:03;;;;;;;5.95;1.52;;;;;;;;;;6230617;28;20053;-83
2023/10/05 11:08:12;;;;;;;4.30;1.25;;;;;;;;;;6219140;28;20089;-85
2023/10/05 11:11:19;;;;;;;6.68;1.95;;;;;;;;;;6212499;28;20065;-84
2023/10/05 11:14:21;;;;;;;7.70;1.50;;;;;;;;;;6216473;28;20046;-84
2023/10/05 11:17:30;;;;;;;2.65;1.20;;;;;;;;;;6208347;28;20034;-83
2023/10/05 11:20:36;;;;;;;5.32;1.33;;;;;;;;;;6234293;28;20060;-83
2023/10/05 11:23:44;;;;;;;6.72;1.17;;;;;;;;;;6220169;28;20050;-84
2023/10/05 11:27:05;;;;;;;4.55;1.30;;;;;;;;;;6226941;28;20135;-84
2023/10/05 11:30:08;;;;;;;4.80;1.40;;;;;;;;;;6239080;28;20669;-85
2023/10/05 11:33:37;;;;;;;6.80;1.75;;;;;;;;;;6214980;28;20072;-83
2023/10/05 11:36:59;;;;;;;5.70;1.40;;;;;;;;;;6241159;28;20041;-84
2023/10/05 11:40:04;;;;;;;2.83;1.27;;;;;;;;;;6198209;28;20050;-84
2023/10/05 11:43:13;;;;;;;5.38;1.40;;;;;;;;;;6229179;28;20500;-85
2023/10/05 11:46:24;;;;;;;5.05;1.33;;;;;;;;;;6231769;28;20056;-84
2023/10/05 11:49:30;;;;;;;2.75;1.30;;;;;;;;;;6225529;28;20381;-83
2023/10/05 11:52:38;;;;;;;3.75;1.13;;;;;;;;;;6220810;28;20046;-83
2023/10/05 11:55:40;;;;;;;4.72;1.00;;;;;;;;;;6210118;28;20037;-83
2023/10/05 11:58:42;;;;;;;6.32;1.15;;;;;;;;;;6215480;28;20058;-84
2023/10/05 12:01:44;;;;;;;3.22;1.30;;;;;;;;;;6214400;28;20442;-85
2023/10/05 12:04:46;;;;;;;2.38;1.23;;;;;;;;;;6220514;28;20056;-83
2023/10/05 12:07:50;;;;;;;4.55;1.23;;;;;;;;;;6234488;28;20494;-83
2023/10/05 12:10:52;;;;;;;5.53;1.25;;;;;;;;;;6221863;28;20207;-83
2023/10/05 12:13:58;;;;;;;6.53;1.30;;;;;;;;;;6239504;28;20046;-84
2023/10/05 12:17:05;;;;;;;2.53;1.02;;;;;;;;;;6217311;28;20061;-82
2023/10/05 12:20:08;;;;;;;3.25;1.10;;;;;;;;;;6221433;28;20052;-85
2023/10/05 12:23:14;;;;;;;6.50;1.35;;;;;;;;;;6222773;28;20121;-84
2023/10/05 12:26:16;;;;;;;4.25;1.30;;;;;;;;;;6206354;28;20042;-82
2023/10/05 12:29:18;;;;;;;2.95;1.20;;;;;;;;;;6245372;28;20070;-83
2023/10/05 12:32:21;;;;;;;5.65;1.30;;;;;;;;;;6227958;28;20049;-84
2023/10/05 12:35:23;;;;;;;2.53;1.08;;;;;;;;;;6227157;28;20049;-84
2023/10/05 12:38:25;;;;;;;3.08;1.40;;;;;;;;;;6227572;28;20041;-83
2023/10/05 12:41:36;;;;;;;3.70;1.40;;;;;;;;;;6244653;28;20041;-82
2023/10/05 12:44:39;;;;;;;3.40;1.30;;;;;;;;;;6225769;28;20092;-84
2023/10/05 12:47:41;;;;;;;3.38;1.02;;;;;;;;;;6220255;28;20042;-85
2023/10/05 12:50:44;;;;;;;2.40;1.10;;;;;;;;;;6219961;28;20058;-83
2023/10/05 12:53:46;;;;;;;5.32;1.23;;;;;;;;;;6219262;28;20165;-82
2023/10/05 12:56:52;;;;;;;3.95;1.30;;;;;;;;;;6231430;28;20046;-82
2023/10/05 13:00:19;;;;;;;3.13;1.20;;;;;;;;;;6231967;28;20528;-83
2023/10/05 13:03:24;;;;;;;5.97;1.30;;;;;;;;;;6213605;28;20132;-81
2023/10/05 13:06:27;;;;;;;5.60;1.23;;;;;;;;;;6218507;28;20041;-81
2023/10/05 13:09:29;;;;;;;4.60;1.55;;;;;;;;;;6199116;28;20046;-82
2023/10/05 13:12:34;;;;;;;5.18;1.75;;;;;;;;;;6218242;28;20045;-81
2023/10/05 13:15:37;;;;;;;3.42;1.42;;;;;;;;;;6198348;28;20073;-81
2023/10/05 13:18:42;;;;;;;;;;;;;;;;;;6215794;28;20045;-81
2023/10/05 13:21:44;;;;;;;6.75;1.23;;;;;;;;;;6226595;28;19929;-80
2023/10/05 13:24:48;;;;;;;4.18;1.23;;;;;;;;;;6235327;28;20045;-80
2023/10/05 13:27:50;;;;;;;3.85;1.50;;;;;;;;;;6223742;28;20057;-80
2023/10/05 13:30:54;;;;;;;4.10;1.13;;;;;;;;;;6227727;28;20042;-82
2023/10/05 13:33:59;;;;;;;4.80;1.30;;;;;;;;;;6214690;28;20041;-82
2023/10/05 13:37:01;;;;;;;3.75;1.50;;;;;;;;;;6227631;28;20045;-82
2023/10/05 13:40:05;;;;;;;4.93;1.33;;;;;;;;;;6225630;28;20056;-82
2023/10/05 13:43:07;;;;;;;6.38;1.50;;;;;;;;;;6229154;28;20544;-82
2023/10/05 13:46:22;;;;;;;3.95;1.30;;;;;;;;;;6212473;28;20041;-82
2023/10/05 13:49:28;;;;;;;3.45;1.52;;;;;;;;;;6217413;28;20124;-83
2023/10/05 13:52:33;;;;;;;4.40;1.50;;;;;;;;;;6215156;28;20050;-81
2023/10/05 13:55:34;;;;;;;4.60;1.38;;;;;;;;;;6209645;28;20037;-81
2023/10/05 13:58:40;;;;;;;5.90;1.38;;;;;;;;;;6226728;28;20085;-84
2023/10/05 14:01:45;;;;;;;5.03;1.60;;;;;;;;;;6213369;28;20041;-81
2023/10/05 14:04:47;;;;;;;5.50;1.05;;;;;;;;;;6208183;28;20046;-80
2023/10/05 14:07:51;;;;;;;3.55;1.40;;;;;;;;;;6217608;28;20161;-81
2023/10/05 14:10:54;;;;;;;4.95;1.48;;;;;;;;;;6248539;28;20045;-82
2023/10/05 14:13:56;;;;;;;2.47;1.05;;;;;;;;;;6215599;28;20045;-84
2023/10/05 14:17:00;;;;;;;4.05;1.10;;;;;;;;;;6226859;28;20405;-82
2023/10/05 14:20:04;;;;;;;4.55;1.13;;;;;;;;;;6245427;28;20389;-84
2023/10/05 14:23:06;;;;;;;5.80;1.63;;;;;;;;;;6214812;28;20042;-82
2023/10/05 14:26:10;;;;;;;4.83;1.17;;;;;;;;;;6214359;28;20145;-81
2023/10/05 14:29:12;;;;;;;3.33;1.20;;;;;;;;;;6214431;28;20038;-81
2023/10/05 14:32:15;;;;;;;4.77;1.50;;;;;;;;;;6226790;28;20108;-83
2023/10/05 14:35:19;;;;;;;3.28;1.20;;;;;;;;;;6229201;28;20460;-84
2023/10/05 14:38:22;;;;;;;3.80;1.08;;;;;;;;;;6216662;28;20034;-83
2023/10/05 14:41:25;;;;;;;4.32;1.23;;;;;;;;;;6234178;28;20610;-83
2023/10/05 14:44:28;;;;;;;3.80;1.45;;;;;;;;;;6236705;28;20042;-81
2023/10/05 14:47:31;;;;;;;3.75;1.50;;;;;;;;;;6231378;28;20042;-81
2023/10/05 14:50:33;;;;;;;3.85;1.40;;;;;;;;;;6241714;28;20511;-79
2023/10/05 14:53:38;;;;;;;2.75;1.08;;;;;;;;;;6220007;28;20053;-82
2023/10/05 14:56:40;;;;;;;3.92;1.30;;;;;;;;;;6223182;28;20052;-82
2023/10/05 14:59:43;;;;;;;2.97;1.25;;;;;;;;;;6235446;28;20404;-81
2023/10/05 15:02:45;;;;;;;6.03;1.40;;;;;;;;;;6236362;28;20049;-81
2023/10/05 15:05:47;;;;;;;3.10;1.17;;;;;;;;;;6234350;28;20038;-80
2023/10/05 15:08:49;;;;;;;4.18;1.13;;;;;;;;;;6226741;28;20675;-81
2023/10/05 15:11:51;;;;;;;5.10;1.10;;;;;;;;;;6229543;28;20133;-80
2023/10/05 15:14:53;;;;;;;4.32;1.25;;;;;;;;;;6217830;28;20053;-81
2023/10/05 15:17:56;;;;;;;2.22;1.10;;;;;;;;;;6222084;28;20042;-82
2023/10/05 15:20:58;;;;;;;4.25;1.30;;;;;;;;;;6225177;28;20049;-80
2023/10/05 15:24:00;;;;;;;5.38;1.20;;;;;;;;;;6235491;28;20049;-80
2023/10/05 15:27:08;;;;;;;3.90;1.00;;;;;;;;;;6214955;28;20049;-82
2023/10/05 15:30:12;;;;;;;3.60;1.20;;;;;;;;;;6214812;28;20153;-82
2023/10/05 15:33:14;;;;;;;5.43;1.10;;;;;;;;;;6207822;28;20096;-84
2023/10/05 15:36:16;;;;;;;4.03;1.02;;;;;;;;;;6210401;28;20079;-82
2023/10/05 15:39:20;;;;;;;5.18;2.00;;;;;;;;;;6228002;28;20046;-83
2023/10/05 15:42:22;;;;;;;4.90;1.65;;;;;;;;;;6208003;28;20049;-82
2023/10/05 15:45:24;;;;;;;2.75;1.20;;;;;;;;;;6214375;28;20054;-82
2023/10/05 15:48:26;;;;;;;3.87;1.10;;;;;;;;;;6208408;28;20038;-83
2023/10/05 15:51:31;;;;;;;3.23;1.10;;;;;;;;;;6210711;28;21112;-81
2023/10/05 15:54:38;;;;;;;3.92;1.00;;;;;;;;;;6211028;28;20699;-83
2023/10/05 15:57:40;;;;;;;4.70;1.33;;;;;;;;;;6220918;28;20241;-81
2023/10/05 16:00:42;;;;;;;4.10;1.23;;;;;;;;;;6222146;28;20079;-83
2023/10/05 16:03:43;;;;;;;3.47;1.10;;;;;;;;;;6218658;28;20056;-83
2023/10/05 16:06:47;;;;;;;1.65;0.93;;;;;;;;;;6235039;28;20049;-85
2023/10/05 16:09:49;;;;;;;3.13;1.40;;;;;;;;;;6232665;28;20042;-83
2023/10/05 16:12:52;;;;;;;3.72;1.00;;;;;;;;;;6225853;28;20050;-82
2023/10/05 16:15:57;;;;;;;;;;;;;;;;;;6219927;28;20049;-80
2023/10/05 16:18:59;;;;;;;3.70;1.25;;;;;;;;;;6238460;28;19932;-82
2023/10/05 16:22:00;;;;;;;1.75;0.93;;;;;;;;;;6236462;28;20050;-82
2023/10/05 16:25:05;;;;;;;3.45;0.98;;;;;;;;;;6223311;28;20045;-81
2023/10/05 16:28:08;;;;;;;4.38;1.40;;;;;;;;;;6226796;28;20048;-81
2023/10/05 16:31:13;;;;;;;;;;;;;;;;;;6233832;28;20117;-79
2023/10/05 16:34:15;;;;;;;3.63;1.17;;;;;;;;;;6221145;28;19932;-81
2023/10/05 16:37:17;;;;;;;5.68;1.40;;;;;;;;;;6222096;28;20038;-82
2023/10/05 16:40:24;;;;;;;4.45;1.40;;;;;;;;;;6206209;28;20046;-82
2023/10/05 16:43:26;;;;;;;3.90;1.52;;;;;;;;;;6211842;28;20492;-84
2023/10/05 16:46:28;;;;;;;4.85;1.30;;;;;;;;;;6218509;28;20074;-82
2023/10/05 16:49:30;;;;;;;2.30;1.08;;;;;;;;;;6249572;28;20065;-83
2023/10/05 16:52:32;;;;;;;2.88;1.15;;;;;;;;;;6210134;28;20084;-82
2023/10/05 16:55:34;;;;;;;4.25;0.95;;;;;;;;;;6213739;28;20046;-84
2023/10/05 16:58:36;;;;;;;8.68;1.50;;;;;;;;;;6212817;28;20061;-83
2023/10/05 17:01:38;;;;;;;5.25;1.80;;;;;;;;;;6215294;28;20060;-82
2023/10/05 17:04:39;;;;;;;3.35;1.55;;;;;;;;;;6221184;28;20143;-83
2023/10/05 17:07:43;;;;;;;4.32;2.22;;;;;;;;;;6195311;28;20045;-81
2023/10/05 17:10:45;;;;;;;4.22;2.00;;;;;;;;;;6213366;28;20145;-82
2023/10/05 17:13:46;;;;;;;6.80;2.10;;;;;;;;;;6215651;28;20042;-84
2023/10/05 17:16:48;;;;;;;2.53;1.55;;;;;;;;;;6225627;28;20137;-83
2023/10/05 17:19:50;;;;;;;3.17;1.40;;;;;;;;;;6231826;28;20054;-82
2023/10/05 17:22:52;;;;;;;6.20;1.67;;;;;;;;;;6230470;28;21920;-83
2023/10/05 17:25:54;;;;;;;4.27;2.57;;;;;;;;;;6234123;28;20038;-81
2023/10/05 17:28:56;;;;;;;5.75;1.90;;;;;;;;;;6222261;28;20044;-81
2023/10/05 17:32:03;;;;;;;4.30;2.38;;;;;;;;;;6217122;28;20048;-83
2023/10/05 17:35:07;;;;;;;6.07;2.35;;;;;;;;;;6225336;28;20048;-83
2023/10/05 17:38:10;;;;;;;4.88;2.00;;;;;;;;;;6216812;28;20053;-84
2023/10/05 17:41:12;;;;;;;7.15;2.38;;;;;;;;;;6201023;28;20491;-83
2023/10/05 17:44:14;;;;;;;5.47;2.45;;;;;;;;;;6210572;28;20034;-81
2023/10/05 17:47:17;;;;;;;7.18;2.72;;;;;;;;;;6224235;28;20049;-83
2023/10/05 17:50:18;;;;;;;4.43;2.03;;;;;;;;;;6222380;28;20046;-82
2023/10/05 17:53:25;;;;;;;5.30;2.13;;;;;;;;;;6208153;28;20101;-82
2023/10/05 17:56:27;;;;;;;7.10;2.67;;;;;;;;;;6222763;28;20041;-83
2023/10/05 17:59:29;;;;;;;7.55;2.42;;;;;;;;;;6211165;28;20092;-83
2023/10/05 18:02:32;;;;;;;3.75;1.90;;;;;;;;;;6191837;28;20041;-83
2023/10/05 18:05:38;;;;;;;3.63;1.65;;;;;;;;;;6209064;28;20129;-81
2023/10/05 18:08:39;;;;;;;6.05;2.22;;;;;;;;;;6226053;28;20050;-82
2023/10/05 18:11:46;;;;;;;7.30;2.60;;;;;;;;;;6210434;28;20060;-81
2023/10/05 18:14:48;;;;;;;4.82;3.20;;;;;;;;;;6216487;28;20053;-82
2023/10/05 18:17:50;;;;;;;8.18;3.40;;;;;;;;;;6224273;28;20065;-82
2023/10/05 18:20:52;;;;;;;8.02;3.00;;;;;;;;;;6212944;28;20049;-82
2023/10/05 18:23:55;;;;;;;7.68;2.60;;;;;;;;;;6213716;28;20053;-81
2023/10/05 18:26:57;;;;;;;6.93;2.50;;;;;;;;;;6197070;28;20431;-81
2023/10/05 18:30:00;;;;;;;5.32;1.92;;;;;;;;;;6209892;28;20046;-82
2023/10/05 18:33:04;;;;;;;4.55;2.28;;;;;;;;;;6225646;28;20084;-83
2023/10/05 18:36:06;;;;;;;5.35;2.50;;;;;;;;;;6216583;28;20192;-83
2023/10/05 18:39:13;;;;;;;8.45;3.03;;;;;;;;;;6224740;28;20046;-83
2023/10/05 18:42:15;;;;;;;6.75;2.90;;;;;;;;;;6197547;28;20041;-80
2023/10/05 18:45:18;;;;;;;15.53;7.97;;;;;;;;;;6216580;28;20472;-82
2023/10/05 18:48:20;;;;;;;16.27;9.10;;;;;;;;;;6225917;28;20053;-80